Rome, Georgia
Current Conditions -  °F | °C
As of 8:53 AM on Sunday 25 Jan 2015 (Local Time) from KRMG Reporting Station
Clear Clear  
Wind Chill: 31°   Ceiling: Unl
Heat Index: 31°   Visibility: 8mi
Dew Point: 29°   Wind: 0mph
Humidity: 92%   Direction: NA
Pressure: 29.93"   Gusts: NA
Location:  34.25°N, 85.17°W
Report Text: KRMG 251353Z AUTO 00000KT 8SM CLR M01/M02 A2993 RMK AO2 SLP136 T10061017 $
Loading
Personal Weather Stations






























Interactive Weather Map New forecast layout! Learn more

10-Day Weather Forecast

Advertisements
Track Severe Weather on mobile